Vesuvius, Virginia
Current Conditions -  °F | °C
As of 7:15 PM on Friday 21 Nov 2014 (Local Time) from KW13 Reporting Station
Clear Clear  
Wind Chill: 26°   Ceiling: Unl
Heat Index: 26°   Visibility: 10mi
Dew Point:   Wind: 0mph
Humidity: 45%   Direction: NA
Pressure: 30.45"   Gusts: NA
Location:  37.91°N, 79.2°W
Report Text: KW13 220015Z AUTO 00000KT 10SM CLR M04/M14 A3045 RMK AO1 T10361141
Loading
Personal Weather Stations






























Interactive Weather Map New forecast layout! Learn more

10-Day Weather Forecast

Advertisements
Track Severe Weather on mobile